Mexico, MO (65265)

10:55 AM CST on January 25, 2015 (GMT -0600)
KMOMEXIC4 | Change Station
CLOSE
Current Station
Personal Weather Station
Location: Mexico, MO
Elevation: 778 ft
Nearby Weather Stations

Elev 778 ft 39.17 °N, 91.87 °W | Updated 1 minute ago

Overcast
Overcast
42.3 °F
Feels Like 37 °F
N
10.0
Wind Variable Wind from WNW
Gusts 11.0 mph

Today
High -- | Low -- °F
--% Chance of Precip.
Yesterday
High -- | Low -- °F
Precip. -- in
7:20 AM 5:19 PM
Waxing Crescent, 34% visible
Pressure 29.62 in
Visibility 3.0 miles
Clouds Overcast 600 ft
Windchill 37 °F
Dew Point 41 °F
Humidity 93%
Rainfall 0.05 in
Snow Depth Not available.
UV 1 out of 12
Pollen .10 out of 12
Air Quality Not available.
Flu Activity Not available.
SPECI KCOU 251620Z 29012KT 3SM -RA BR OVC006 05/04 A2962 RMK AO2 RAB04 P0000 T00500044

More Conditions Fewer Conditions

Pressure 29.62 in
Visibility 3.0 miles
Clouds Overcast 600 ft
Windchill 37 °F
Dew Point 41 °F
Humidity 93%
Rainfall 0.05 in
Snow Depth Not available.
UV 1 out of 12
Pollen .10 out of 12
Air Quality Not available.
Flu Activity Not available.
SPECI KCOU 251620Z 29012KT 3SM -RA BR OVC006 05/04 A2962 RMK AO2 RAB04 P0000 T00500044

More Conditions Fewer Conditions

10-Day Weather Forecast

Almanac

Astronomy

Jan. 25, 2015 Rise Set
Actual Time
Civil Twilight
Nautical Twilight
Astronomical Twilight
Moon
Length of Visible Light
Length of Day
Tomorrow will be .
, % of the Moon is Illuminated

Today's Extremes

State Highs State Lows

Community

WunderPhotos

Upload Photos

1,789,963 photos uploaded!

WunderBlogs® & News

Nearby

Air Quality

  Air Quality AQ Index Pollutant
Not available.

Snow Depth

Station Depth Elevation

Earthquake Activity

City Distance Mag. Time & Date
Minimum magnitude displayed is 2.5.

Coastal Water Temperatures

Place Temperature

Nearby Weather Stations